Time;durP1;ratioP1;P1;durP2;ratioP2;P2;SDS_P1;SDS_P2;PMS_P1;PMS_P2;Temp;Humidity;BMP_temperature;BMP_pressure;BME280_temperature;BME280_humidity;BME280_pressure;Samples;Min_cycle;Max_cycle;Signal;HPM_P1;HPM_P2
2023/07/09 00:00:06;;;;;;;10.27;4.82;;;24.40;99.90;;;;;;4999511;28;20028;-69
2023/07/09 00:02:31;;;;;;;10.57;5.32;;;24.50;99.90;;;;;;5001679;28;20087;-69
2023/07/09 00:04:57;;;;;;;9.52;5.18;;;24.50;99.90;;;;;;5003556;28;20101;-69
2023/07/09 00:07:31;;;;;;;10.73;6.22;;;24.30;99.90;;;;;;5002787;28;20042;-69
2023/07/09 00:09:58;;;;;;;13.85;5.00;;;24.20;99.90;;;;;;5002627;28;20122;-68
2023/07/09 00:12:24;;;;;;;11.57;4.68;;;24.20;99.90;;;;;;5002862;28;20028;-69
2023/07/09 00:14:50;;;;;;;10.82;5.85;;;24.30;99.90;;;;;;5002492;28;20037;-69
2023/07/09 00:17:25;;;;;;;12.93;5.68;;;24.30;99.90;;;;;;5002663;28;20022;-69
2023/07/09 00:19:51;;;;;;;7.57;4.63;;;24.30;99.90;;;;;;5002411;28;20022;-69
2023/07/09 00:22:18;;;;;;;9.00;4.55;;;24.30;99.90;;;;;;5002838;28;20077;-69
2023/07/09 00:24:50;;;;;;;9.98;4.78;;;24.20;99.90;;;;;;5002685;28;20081;-69
2023/07/09 00:27:18;;;;;;;12.70;5.22;;;24.10;99.90;;;;;;5003133;28;20030;-69
2023/07/09 00:29:44;;;;;;;11.95;5.75;;;24.10;99.90;;;;;;5002241;28;20026;-69
2023/07/09 00:32:15;;;;;;;9.82;5.00;;;24.10;99.90;;;;;;5002548;28;20026;-69
2023/07/09 00:34:41;;;;;;;11.15;5.40;;;24.10;99.90;;;;;;5002506;28;20148;-70
2023/07/09 00:37:12;;;;;;;12.20;5.38;;;24.10;99.90;;;;;;5002087;28;20087;-70
2023/07/09 00:39:40;;;;;;;;;;;24.10;99.90;;;;;;5003310;28;20028;-70
2023/07/09 00:42:10;;;;;;;11.73;4.90;;;24.10;99.90;;;;;;5002035;28;19906;-70
2023/07/09 00:44:35;;;;;;;11.10;4.47;;;24.00;99.90;;;;;;5002381;28;20045;-70
2023/07/09 00:47:01;;;;;;;10.45;5.32;;;23.90;99.90;;;;;;5002202;28;20025;-70
2023/07/09 00:49:33;;;;;;;10.35;4.72;;;23.80;99.90;;;;;;5002175;28;20052;-70
2023/07/09 00:52:02;;;;;;;8.30;4.60;;;23.60;99.90;;;;;;5002212;28;20032;-71
2023/07/09 00:54:41;;;;;;;10.13;5.60;;;23.50;99.90;;;;;;5002129;28;20112;-71
2023/07/09 00:57:12;;;;;;;8.45;5.03;;;23.40;99.90;;;;;;5002528;28;20036;-71
2023/07/09 00:59:40;;;;;;;8.45;4.90;;;23.30;99.90;;;;;;5002208;28;20026;-71
2023/07/09 01:02:07;;;;;;;12.07;4.95;;;23.10;99.90;;;;;;5002474;28;20084;-70
2023/07/09 01:04:34;;;;;;;8.82;5.18;;;23.00;99.90;;;;;;5002336;28;20026;-70
2023/07/09 01:07:00;;;;;;;9.43;5.07;;;23.00;99.90;;;;;;5001745;28;20061;-70
2023/07/09 01:09:26;;;;;;;11.65;5.88;;;23.00;99.90;;;;;;5001806;28;20028;-71
2023/07/09 01:11:56;;;;;;;10.50;5.07;;;23.00;99.90;;;;;;5001789;28;20120;-71
2023/07/09 01:14:25;;;;;;;6.60;4.47;;;23.00;99.90;;;;;;5001831;28;20029;-70
2023/07/09 01:16:59;;;;;;;13.32;5.43;;;23.00;99.90;;;;;;5001483;28;20026;-70
2023/07/09 01:19:28;;;;;;;9.38;5.45;;;23.00;99.90;;;;;;5002305;28;20025;-71
2023/07/09 01:21:59;;;;;;;10.32;4.90;;;22.90;99.90;;;;;;5001476;28;20021;-71
2023/07/09 01:24:50;;;;;;;8.65;5.05;;;22.90;99.90;;;;;;5001574;28;20022;-70
2023/07/09 01:27:18;;;;;;;8.43;4.97;;;22.90;99.90;;;;;;5001464;28;20065;-70
2023/07/09 01:29:48;;;;;;;11.60;5.32;;;22.90;99.90;;;;;;5001386;28;20307;-71
2023/07/09 01:32:19;;;;;;;12.32;5.25;;;22.80;99.90;;;;;;5001899;28;20026;-70
2023/07/09 01:34:47;;;;;;;8.50;3.95;;;22.70;99.90;;;;;;5001898;28;20037;-70
2023/07/09 01:37:14;;;;;;;7.75;4.55;;;22.70;99.90;;;;;;5001218;28;20116;-70
2023/07/09 01:39:40;;;;;;;10.15;5.20;;;22.60;99.90;;;;;;5001704;28;20057;-71
2023/07/09 01:42:08;;;;;;;11.65;5.03;;;22.70;99.90;;;;;;5000985;28;20033;-71
2023/07/09 01:44:35;;;;;;;8.25;4.53;;;22.60;99.90;;;;;;5001348;28;20028;-71
2023/07/09 01:47:03;;;;;;;7.63;5.05;;;22.50;99.90;;;;;;5001447;28;20058;-71
2023/07/09 01:49:32;;;;;;;9.00;5.47;;;22.40;99.90;;;;;;5001549;28;20022;-70
2023/07/09 01:52:00;;;;;;;8.93;5.35;;;22.30;99.90;;;;;;5000883;28;20022;-71
2023/07/09 01:54:27;;;;;;;8.98;4.80;;;22.20;99.90;;;;;;5001561;28;20061;-71
2023/07/09 01:56:56;;;;;;;7.78;4.72;;;22.20;99.90;;;;;;5000385;28;20022;-71
2023/07/09 01:59:22;;;;;;;9.05;5.18;;;22.10;99.90;;;;;;5000966;28;20030;-71
2023/07/09 02:01:47;;;;;;;8.90;4.68;;;22.10;99.90;;;;;;5000890;28;20060;-71
2023/07/09 02:04:13;;;;;;;9.15;4.85;;;22.20;99.90;;;;;;5000955;28;20022;-71
2023/07/09 02:06:38;;;;;;;9.98;5.65;;;22.20;99.90;;;;;;5000746;28;20036;-71
2023/07/09 02:09:04;;;;;;;11.32;4.65;;;22.10;99.90;;;;;;5000666;28;20026;-71
2023/07/09 02:11:30;;;;;;;11.02;5.15;;;22.00;99.90;;;;;;5000513;28;20125;-71
2023/07/09 02:13:55;;;;;;;9.13;5.32;;;21.90;99.90;;;;;;5000227;28;20022;-70
2023/07/09 02:16:21;;;;;;;12.25;4.68;;;21.80;99.90;;;;;;5000239;28;20041;-71
2023/07/09 02:18:46;;;;;;;8.23;4.40;;;21.80;99.90;;;;;;5000651;28;20033;-71
2023/07/09 02:21:12;;;;;;;10.73;4.38;;;21.80;99.90;;;;;;5001098;28;20026;-71
2023/07/09 02:23:37;;;;;;;9.93;4.60;;;21.80;99.90;;;;;;5000818;28;20029;-71
2023/07/09 02:26:03;;;;;;;11.43;5.28;;;21.80;99.90;;;;;;5000262;28;20026;-70
2023/07/09 02:28:28;;;;;;;7.47;4.32;;;21.90;99.90;;;;;;5000547;28;20030;-70
2023/07/09 02:30:54;;;;;;;9.88;5.25;;;22.00;99.90;;;;;;5000940;28;20049;-70
2023/07/09 02:33:20;;;;;;;16.98;5.50;;;22.00;99.90;;;;;;5000003;28;20117;-70
2023/07/09 02:35:47;;;;;;;9.98;4.68;;;21.90;99.90;;;;;;5000935;28;20058;-70
2023/07/09 02:38:12;;;;;;;6.45;4.15;;;21.80;99.90;;;;;;5000326;28;20022;-70
2023/07/09 02:40:39;;;;;;;9.23;5.00;;;21.60;99.90;;;;;;5000430;28;20033;-70
2023/07/09 02:43:04;;;;;;;11.25;4.68;;;21.60;99.90;;;;;;5000909;28;20035;-70
2023/07/09 02:45:30;;;;;;;9.25;5.30;;;21.60;99.90;;;;;;5000304;28;20029;-70
2023/07/09 02:47:55;;;;;;;12.60;4.82;;;21.60;99.90;;;;;;5000605;28;20018;-70
2023/07/09 02:50:21;;;;;;;10.48;5.15;;;21.60;99.90;;;;;;5000955;28;20032;-70
2023/07/09 02:52:46;;;;;;;9.45;5.57;;;21.60;99.90;;;;;;5000763;28;20040;-70
2023/07/09 02:55:12;;;;;;;10.13;4.63;;;21.50;99.90;;;;;;5000674;28;20093;-70
2023/07/09 02:57:37;;;;;;;11.90;5.13;;;21.20;99.90;;;;;;4999770;28;20064;-71
2023/07/09 03:00:07;;;;;;;12.55;5.65;;;21.10;99.90;;;;;;5000360;28;20072;-70
2023/07/09 03:02:34;;;;;;;12.82;5.03;;;20.90;99.90;;;;;;4999752;28;20026;-70
2023/07/09 03:05:00;;;;;;;8.65;4.60;;;20.90;99.90;;;;;;5000147;28;20018;-70
2023/07/09 03:07:26;;;;;;;9.25;5.20;;;20.90;99.90;;;;;;5000427;28;20096;-68
2023/07/09 03:09:51;;;;;;;11.27;5.10;;;21.10;99.90;;;;;;5000908;28;20030;-70
2023/07/09 03:12:17;;;;;;;10.38;4.95;;;21.20;99.90;;;;;;5000080;28;20033;-70
2023/07/09 03:14:43;;;;;;;10.82;5.10;;;21.20;99.90;;;;;;5000036;28;20045;-68
2023/07/09 03:17:08;;;;;;;10.60;5.78;;;21.20;99.90;;;;;;4999894;28;20030;-68
2023/07/09 03:19:34;;;;;;;12.57;4.85;;;21.10;99.90;;;;;;5000435;28;20044;-69
2023/07/09 03:21:59;;;;;;;9.30;4.97;;;21.10;99.90;;;;;;5000562;28;20112;-70
2023/07/09 03:24:25;;;;;;;9.95;4.78;;;21.20;99.90;;;;;;5000162;28;20037;-69
2023/07/09 03:26:50;;;;;;;12.63;4.88;;;21.10;99.90;;;;;;4999721;28;20133;-69
2023/07/09 03:29:16;;;;;;;12.32;5.40;;;21.00;99.90;;;;;;5000023;28;20022;-70
2023/07/09 03:31:41;;;;;;;8.18;4.88;;;20.90;99.90;;;;;;5000110;28;20025;-70
2023/07/09 03:34:07;;;;;;;8.77;5.13;;;20.80;99.90;;;;;;5000323;28;20034;-70
2023/07/09 03:36:32;;;;;;;9.20;4.78;;;20.80;99.90;;;;;;5002639;28;20026;-70
2023/07/09 03:38:58;;;;;;;8.05;5.05;;;20.80;99.90;;;;;;5004125;28;20032;-70
2023/07/09 03:41:24;;;;;;;15.05;5.53;;;20.90;99.90;;;;;;5003397;28;20025;-71
2023/07/09 03:43:52;;;;;;;10.30;4.57;;;21.00;99.90;;;;;;5003418;28;20026;-70
2023/07/09 03:46:18;;;;;;;10.75;5.40;;;21.10;99.90;;;;;;5003996;28;20033;-70
2023/07/09 03:48:43;;;;;;;11.23;5.05;;;21.00;99.90;;;;;;5003497;28;20026;-70
2023/07/09 03:51:09;;;;;;;10.82;4.72;;;21.00;99.90;;;;;;5003396;28;20030;-71
2023/07/09 03:53:34;;;;;;;11.50;4.97;;;21.10;99.90;;;;;;5004307;28;20022;-71
2023/07/09 03:56:00;;;;;;;10.02;4.43;;;21.00;99.90;;;;;;5003262;28;20021;-71
2023/07/09 03:58:26;;;;;;;11.00;4.85;;;21.00;99.90;;;;;;5003755;28;20026;-70
2023/07/09 04:00:53;;;;;;;10.07;4.95;;;21.00;99.90;;;;;;5003252;28;20046;-70
2023/07/09 04:03:19;;;;;;;10.45;5.38;;;20.80;99.90;;;;;;5003658;28;20026;-70
2023/07/09 04:05:47;;;;;;;7.53;4.93;;;20.60;99.90;;;;;;5003601;28;20109;-70
2023/07/09 04:08:13;;;;;;;9.30;5.03;;;20.60;99.90;;;;;;5002549;28;20033;-70
2023/07/09 04:10:38;;;;;;;12.32;5.05;;;20.50;99.90;;;;;;5003743;28;20021;-71
2023/07/09 04:13:04;;;;;;;10.35;5.07;;;20.50;99.90;;;;;;5002589;28;20022;-70
2023/07/09 04:15:29;;;;;;;12.63;5.45;;;20.50;99.90;;;;;;5002676;28;20029;-70
2023/07/09 04:17:55;;;;;;;11.18;5.72;;;20.50;99.90;;;;;;5002773;28;20029;-70
2023/07/09 04:20:21;;;;;;;12.65;5.30;;;20.60;99.90;;;;;;5002946;28;20113;-70
2023/07/09 04:22:46;;;;;;;12.20;5.65;;;20.70;99.90;;;;;;5003216;28;20018;-70
2023/07/09 04:25:12;;;;;;;7.97;4.78;;;20.70;99.90;;;;;;5002582;28;20022;-71
2023/07/09 04:27:39;;;;;;;9.82;4.50;;;20.70;99.90;;;;;;5003448;28;20030;-71
2023/07/09 04:30:08;;;;;;;14.07;6.00;;;20.80;99.90;;;;;;5002579;28;20026;-71
2023/07/09 04:32:34;;;;;;;12.68;6.07;;;20.70;99.90;;;;;;5002367;28;20033;-71
2023/07/09 04:34:59;;;;;;;7.43;4.63;;;20.90;99.90;;;;;;5002278;28;20025;-70
2023/07/09 04:37:25;;;;;;;13.98;5.32;;;20.90;99.90;;;;;;5002636;28;20121;-70
2023/07/09 04:39:50;;;;;;;9.50;5.32;;;20.90;99.90;;;;;;5002476;28;20026;-71
2023/07/09 04:42:17;;;;;;;10.60;4.88;;;20.90;99.90;;;;;;5002460;28;20049;-70
2023/07/09 04:44:44;;;;;;;8.57;4.88;;;21.00;99.90;;;;;;5002185;28;20018;-70
2023/07/09 04:47:11;;;;;;;11.50;6.13;;;20.90;99.90;;;;;;5001703;28;20073;-70
2023/07/09 04:49:37;;;;;;;8.82;5.22;;;20.90;99.90;;;;;;5002333;28;20087;-71
2023/07/09 04:52:03;;;;;;;9.65;5.70;;;20.90;99.90;;;;;;5001904;28;20125;-70
2023/07/09 04:54:30;;;;;;;11.88;5.10;;;20.80;99.90;;;;;;5002727;28;20025;-70
2023/07/09 04:56:56;;;;;;;13.93;5.43;;;20.90;99.90;;;;;;5001729;28;20021;-70
2023/07/09 04:59:22;;;;;;;7.40;4.75;;;21.00;99.90;;;;;;5002123;28;20022;-71
2023/07/09 05:01:47;;;;;;;11.02;5.30;;;21.10;99.90;;;;;;5002177;28;20028;-71
2023/07/09 05:04:13;;;;;;;8.68;5.18;;;21.10;99.90;;;;;;5002005;28;20068;-70
2023/07/09 05:06:38;;;;;;;9.68;5.32;;;21.10;99.90;;;;;;5028365;23;21043;-71
2023/07/09 05:09:04;;;;;;;10.23;5.35;;;21.10;99.90;;;;;;5037779;28;20025;-71
2023/07/09 05:11:34;;;;;;;9.43;5.47;;;21.20;99.90;;;;;;5037715;28;20017;-71
2023/07/09 05:13:59;;;;;;;7.57;4.63;;;21.20;99.90;;;;;;5038504;28;20017;-71
2023/07/09 05:16:25;;;;;;;9.70;5.35;;;21.30;99.90;;;;;;5037398;28;20022;-71
2023/07/09 05:18:50;;;;;;;10.90;5.10;;;21.50;99.90;;;;;;5038335;28;20047;-71
2023/07/09 05:21:16;;;;;;;9.02;4.82;;;21.40;99.90;;;;;;5037486;28;20021;-71
2023/07/09 05:23:41;;;;;;;9.85;4.72;;;21.30;99.90;;;;;;5037401;28;20025;-71
2023/07/09 05:26:08;;;;;;;14.63;5.35;;;21.30;99.90;;;;;;5037379;28;20025;-71
2023/07/09 05:28:34;;;;;;;10.68;5.05;;;21.30;99.90;;;;;;5037476;28;20026;-71
2023/07/09 05:31:00;;;;;;;9.77;5.40;;;21.20;99.90;;;;;;5037330;28;20033;-71
2023/07/09 05:33:25;;;;;;;8.50;4.72;;;21.40;99.90;;;;;;5037176;28;20029;-71
2023/07/09 05:35:51;;;;;;;10.82;5.28;;;21.50;99.90;;;;;;5037695;28;20032;-71
2023/07/09 05:38:16;;;;;;;12.38;4.63;;;21.60;99.90;;;;;;5037142;28;20048;-71
2023/07/09 05:40:43;;;;;;;15.48;5.45;;;21.70;99.90;;;;;;5037269;28;20060;-71
2023/07/09 05:43:10;;;;;;;7.15;4.32;;;21.80;99.90;;;;;;5037450;28;20076;-71
2023/07/09 05:45:35;;;;;;;9.68;5.10;;;21.90;99.90;;;;;;5037305;28;20021;-71
2023/07/09 05:48:01;;;;;;;10.32;6.00;;;21.90;99.90;;;;;;5037057;28;20079;-71
2023/07/09 05:50:28;;;;;;;11.07;4.75;;;21.90;99.90;;;;;;5037224;28;20032;-71
2023/07/09 05:52:54;;;;;;;11.75;5.38;;;21.70;99.90;;;;;;5037802;28;20033;-71
2023/07/09 05:55:20;;;;;;;9.85;5.10;;;21.60;99.90;;;;;;5037400;28;20079;-71
2023/07/09 05:57:45;;;;;;;9.38;5.22;;;21.50;99.90;;;;;;5036793;28;20033;-71
2023/07/09 06:00:12;;;;;;;15.40;5.72;;;21.70;99.90;;;;;;5036692;28;20029;-71
2023/07/09 06:02:38;;;;;;;11.00;5.22;;;21.70;99.90;;;;;;5037103;28;20025;-71
2023/07/09 06:05:04;;;;;;;8.23;5.32;;;21.70;99.90;;;;;;5037368;28;20032;-71
2023/07/09 06:07:30;;;;;;;10.02;5.30;;;21.70;99.90;;;;;;5036322;28;20036;-71
2023/07/09 06:09:57;;;;;;;18.85;5.75;;;21.80;99.90;;;;;;5036694;28;20025;-71
2023/07/09 06:12:23;;;;;;;13.98;6.15;;;21.90;99.90;;;;;;5037873;28;20136;-71
2023/07/09 06:14:48;;;;;;;10.75;5.43;;;22.00;99.90;;;;;;5037054;28;20026;-71
2023/07/09 06:17:14;;;;;;;8.57;5.13;;;22.20;99.90;;;;;;5036380;28;20021;-71
2023/07/09 06:19:40;;;;;;;7.82;5.22;;;22.20;99.90;;;;;;5036729;28;20025;-71
2023/07/09 06:22:05;;;;;;;9.52;5.60;;;22.30;99.90;;;;;;5036524;28;20029;-71
2023/07/09 06:24:31;;;;;;;12.35;5.25;;;22.20;99.90;;;;;;5036995;28;20029;-71
2023/07/09 06:26:57;;;;;;;11.07;5.60;;;22.40;99.90;;;;;;5036532;28;20021;-71
2023/07/09 06:29:23;;;;;;;9.02;5.00;;;22.50;99.90;;;;;;5020265;28;20063;-71
2023/07/09 06:31:49;;;;;;;13.15;5.45;;;22.70;99.90;;;;;;5036571;28;20057;-71
2023/07/09 06:34:14;;;;;;;13.57;5.57;;;22.80;99.90;;;;;;5036264;28;20021;-71
2023/07/09 06:36:40;;;;;;;10.40;5.20;;;22.90;99.90;;;;;;5036351;28;20021;-71
2023/07/09 06:39:06;;;;;;;12.18;5.35;;;23.10;99.90;;;;;;5036674;28;20057;-71
2023/07/09 06:41:38;;;;;;;8.90;4.45;;;23.20;99.90;;;;;;5036865;28;20067;-71
2023/07/09 06:44:05;;;;;;;7.88;4.38;;;23.30;99.90;;;;;;5036082;28;20022;-71
2023/07/09 06:46:31;;;;;;;7.93;4.55;;;23.40;99.90;;;;;;5036819;28;20029;-71
2023/07/09 06:48:56;;;;;;;14.05;5.30;;;23.50;99.90;;;;;;5036335;28;20018;-71
2023/07/09 06:51:22;;;;;;;7.63;4.75;;;23.60;99.90;;;;;;5036104;28;20220;-71
2023/07/09 06:53:50;;;;;;;9.07;4.95;;;23.70;99.90;;;;;;5035914;28;20017;-71
2023/07/09 06:56:16;;;;;;;9.02;4.60;;;23.80;99.90;;;;;;5036138;28;20030;-71
2023/07/09 06:58:41;;;;;;;8.68;4.90;;;23.90;99.90;;;;;;5036232;28;20031;-72
2023/07/09 07:01:09;;;;;;;7.68;4.50;;;24.00;99.90;;;;;;5036131;28;20025;-72
2023/07/09 07:03:35;;;;;;;9.18;5.35;;;24.00;99.90;;;;;;5036072;28;20025;-71
2023/07/09 07:06:01;;;;;;;10.75;4.80;;;23.90;99.90;;;;;;5036962;28;20032;-71
2023/07/09 07:08:26;;;;;;;7.72;4.93;;;23.90;99.90;;;;;;5035827;28;20030;-71
2023/07/09 07:11:04;;;;;;;10.75;4.97;;;23.90;99.90;;;;;;5037347;28;20076;-71
2023/07/09 07:13:39;;;;;;;14.57;5.10;;;24.10;99.90;;;;;;5040410;28;20032;-72
2023/07/09 07:16:07;;;;;;;9.80;5.05;;;24.20;99.90;;;;;;5040239;28;20064;-72
2023/07/09 07:18:33;;;;;;;9.25;4.90;;;24.40;99.90;;;;;;5040612;28;20037;-72
2023/07/09 07:20:59;;;;;;;10.88;5.68;;;24.40;99.90;;;;;;5040415;28;20029;-72
2023/07/09 07:23:25;;;;;;;8.18;4.78;;;24.40;99.90;;;;;;5039722;28;20052;-72
2023/07/09 07:25:51;;;;;;;9.90;4.68;;;24.40;99.90;;;;;;5039578;28;20112;-71
2023/07/09 07:28:17;;;;;;;7.53;5.03;;;24.30;99.90;;;;;;5040755;28;20017;-72
2023/07/09 07:30:43;;;;;;;8.00;4.63;;;24.40;99.90;;;;;;5040169;28;20026;-72
2023/07/09 07:33:10;;;;;;;11.20;5.05;;;24.60;99.90;;;;;;5040712;28;20017;-72
2023/07/09 07:35:36;;;;;;;12.27;6.15;;;24.90;99.90;;;;;;5039692;28;20025;-72
2023/07/09 07:38:02;;;;;;;8.07;4.88;;;25.00;99.90;;;;;;5040341;28;20029;-72
2023/07/09 07:40:27;;;;;;;10.32;4.63;;;25.20;99.90;;;;;;5040341;28;20022;-73
2023/07/09 07:42:53;;;;;;;6.32;4.45;;;25.30;99.90;;;;;;5039478;28;20187;-72
2023/07/09 07:45:18;;;;;;;8.82;4.97;;;25.20;99.90;;;;;;5039467;28;20025;-71
2023/07/09 07:47:44;;;;;;;14.43;5.07;;;25.20;99.90;;;;;;5039504;28;20018;-71
2023/07/09 07:50:10;;;;;;;10.32;5.20;;;25.30;99.90;;;;;;5040141;28;20022;-71
2023/07/09 07:52:37;;;;;;;9.73;4.90;;;25.40;99.90;;;;;;5039234;28;20028;-71
2023/07/09 07:55:07;;;;;;;8.88;5.55;;;25.50;99.90;;;;;;5040090;28;20017;-73
2023/07/09 07:57:33;;;;;;;7.25;4.28;;;25.60;99.90;;;;;;5038954;28;20029;-71
2023/07/09 07:59:58;;;;;;;10.43;5.07;;;25.70;99.90;;;;;;5039923;28;20091;-71
2023/07/09 08:02:24;;;;;;;10.85;5.20;;;25.70;99.90;;;;;;5039836;28;20029;-71
2023/07/09 08:04:50;;;;;;;8.07;4.25;;;25.70;99.90;;;;;;5039656;28;20026;-71
2023/07/09 08:07:18;;;;;;;10.75;5.10;;;25.80;99.90;;;;;;5038806;28;20040;-71
2023/07/09 08:09:44;;;;;;;9.45;5.03;;;25.80;99.90;;;;;;5039228;28;20053;-71
2023/07/09 08:12:12;;;;;;;12.80;4.88;;;25.80;99.90;;;;;;5039191;28;20017;-71
2023/07/09 08:14:38;;;;;;;7.80;4.88;;;25.80;99.90;;;;;;5039069;28;20022;-71
2023/07/09 08:17:04;;;;;;;9.10;4.93;;;25.90;99.90;;;;;;5038794;28;20092;-71
2023/07/09 08:19:31;;;;;;;9.88;4.85;;;26.00;99.90;;;;;;5038648;28;20099;-71
2023/07/09 08:21:56;;;;;;;8.77;4.47;;;26.20;99.90;;;;;;5038568;28;20021;-71
2023/07/09 08:24:22;;;;;;;7.13;4.32;;;26.40;99.90;;;;;;5039264;28;20080;-71
2023/07/09 08:26:47;;;;;;;8.77;4.68;;;26.70;99.90;;;;;;5038227;28;20093;-71
2023/07/09 08:29:13;;;;;;;12.38;4.32;;;27.00;99.90;;;;;;5038554;28;20065;-71
2023/07/09 08:31:41;;;;;;;6.05;4.07;;;27.30;99.90;;;;;;5038187;28;20021;-71
2023/07/09 08:34:07;;;;;;;8.07;5.20;;;27.30;99.90;;;;;;5039783;28;20017;-71
2023/07/09 08:36:34;;;;;;;8.25;4.60;;;27.20;99.90;;;;;;5038384;28;20101;-71
2023/07/09 08:39:02;;;;;;;6.15;4.30;;;27.40;99.90;;;;;;5038318;28;20030;-71
2023/07/09 08:41:39;;;;;;;7.32;4.30;;;27.60;99.90;;;;;;5038252;28;20112;-72
2023/07/09 08:44:40;;;;;;;7.85;3.97;;;27.70;99.90;;;;;;5038310;28;20029;-71
2023/07/09 08:47:11;;;;;;;6.90;4.38;;;27.80;99.90;;;;;;4994881;28;20033;-72
2023/07/09 08:49:45;;;;;;;8.00;4.00;;;27.80;99.90;;;;;;5038172;28;20029;-71
2023/07/09 08:52:24;;;;;;;5.90;3.85;;;27.80;99.90;;;;;;5038272;28;20029;-71
2023/07/09 08:54:51;;;;;;;9.65;4.05;;;28.00;99.90;;;;;;5038555;28;20120;-71
2023/07/09 08:57:26;;;;;;;6.03;4.05;;;28.40;99.90;;;;;;5039101;28;20078;-71
2023/07/09 09:00:00;;;;;;;6.55;3.50;;;28.50;99.90;;;;;;5039087;28;20071;-71
2023/07/09 09:02:36;;;;;;;8.43;4.07;;;28.60;99.90;;;;;;5038005;28;20018;-71
2023/07/09 09:05:04;;;;;;;6.35;3.22;;;28.50;99.90;;;;;;5038475;28;20070;-71
2023/07/09 09:07:41;;;;;;;7.13;3.72;;;28.70;99.90;;;;;;5038428;28;20037;-71
2023/07/09 09:10:14;;;;;;;5.88;3.70;;;28.90;99.90;;;;;;5038619;28;20029;-71
2023/07/09 09:12:59;;;;;;;7.35;3.58;;;29.10;99.90;;;;;;5037837;28;20025;-71
2023/07/09 09:15:26;;;;;;;6.43;3.47;;;29.10;99.90;;;;;;5037730;28;20028;-71
2023/07/09 09:17:55;;;;;;;9.50;4.22;;;29.30;99.90;;;;;;5038345;28;20025;-71
2023/07/09 09:20:22;;;;;;;5.55;3.22;;;29.50;99.90;;;;;;5037592;28;20028;-71
2023/07/09 09:23:12;;;;;;;7.38;3.80;;;29.50;99.90;;;;;;5037683;28;20022;-71
2023/07/09 09:25:41;;;;;;;7.60;4.50;;;29.80;99.90;;;;;;5038300;28;20057;-71
2023/07/09 09:28:07;;;;;;;9.05;4.05;;;30.00;99.90;;;;;;5038171;28;20079;-71
2023/07/09 09:30:33;;;;;;;6.32;3.53;;;30.00;99.90;;;;;;5037617;28;20025;-71
2023/07/09 09:33:06;;;;;;;5.72;3.35;;;30.10;99.90;;;;;;5036965;28;20075;-71
2023/07/09 09:35:38;;;;;;;7.55;4.15;;;30.30;99.90;;;;;;5038617;28;20028;-71
2023/07/09 09:38:21;;;;;;;6.25;3.67;;;30.40;99.90;;;;;;5037190;28;20116;-71
2023/07/09 09:40:47;;;;;;;8.38;3.63;;;30.40;99.90;;;;;;5037291;28;20026;-71
2023/07/09 09:43:17;;;;;;;11.10;3.95;;;30.40;99.90;;;;;;5038179;28;20055;-71
2023/07/09 09:45:44;;;;;;;11.88;3.60;;;30.60;99.90;;;;;;5037067;28;20033;-71
2023/07/09 09:48:17;;;;;;;8.10;3.88;;;30.70;99.90;;;;;;5038322;28;20033;-71
2023/07/09 09:50:45;;;;;;;6.63;3.78;;;30.80;99.80;;;;;;5037253;28;20226;-71
2023/07/09 09:53:20;;;;;;;6.05;3.75;;;30.90;99.80;;;;;;5037744;28;20026;-71
2023/07/09 09:55:46;;;;;;;5.55;3.80;;;30.90;99.10;;;;;;5036924;28;20028;-71
2023/07/09 09:58:15;;;;;;;5.45;3.70;;;30.90;99.10;;;;;;5037660;28;20082;-71
2023/07/09 10:00:51;;;;;;;8.77;4.03;;;31.10;99.20;;;;;;5037656;28;20021;-71
2023/07/09 10:03:17;;;;;;;7.18;3.92;;;31.10;98.50;;;;;;5037707;28;20034;-71
2023/07/09 10:05:59;;;;;;;5.55;3.47;;;31.00;99.40;;;;;;5036776;28;20167;-71
2023/07/09 10:08:40;;;;;;;10.80;4.55;;;31.00;98.60;;;;;;5036384;28;20116;-71
2023/07/09 10:11:15;;;;;;;8.23;3.83;;;31.20;98.40;;;;;;5036657;28;20037;-71
2023/07/09 10:13:45;;;;;;;6.10;4.00;;;31.40;97.20;;;;;;5037014;28;20028;-71
2023/07/09 10:16:24;;;;;;;7.63;3.90;;;31.60;94.90;;;;;;5036630;28;20112;-71
2023/07/09 10:18:59;;;;;;;7.10;3.92;;;31.80;94.90;;;;;;5036455;28;20144;-71
2023/07/09 10:21:41;;;;;;;9.98;3.85;;;32.00;94.20;;;;;;5037398;28;20120;-71
2023/07/09 10:24:13;;;;;;;8.23;3.63;;;32.00;94.20;;;;;;5036384;28;20033;-72
2023/07/09 10:26:56;;;;;;;7.43;3.78;;;32.10;94.30;;;;;;5037081;28;20032;-71
2023/07/09 10:29:41;;;;;;;7.15;4.00;;;32.10;93.00;;;;;;5037578;28;20057;-71
2023/07/09 10:32:40;;;;;;;7.45;3.72;;;32.50;93.10;;;;;;5036495;28;20032;-71
2023/07/09 10:35:45;;;;;;;7.57;3.45;;;32.70;92.40;;;;;;5037189;28;20116;-71
2023/07/09 10:38:26;;;;;;;9.07;3.50;;;32.80;92.70;;;;;;5036606;28;20064;-71
2023/07/09 10:40:55;;;;;;;6.40;3.60;;;33.00;92.20;;;;;;5036672;28;20089;-71
2023/07/09 10:43:45;;;;;;;7.57;3.53;;;33.50;91.10;;;;;;5037205;28;20040;-71
2023/07/09 10:46:21;;;;;;;7.20;4.10;;;33.60;90.70;;;;;;5034786;28;20038;-71
2023/07/09 10:48:50;;;;;;;8.35;4.35;;;34.10;90.40;;;;;;5037565;28;20025;-71
2023/07/09 10:51:39;;;;;;;9.18;4.07;;;34.40;90.20;;;;;;5036904;28;20112;-71
2023/07/09 10:54:16;;;;;;;5.78;3.83;;;34.50;87.20;;;;;;5036134;28;20021;-71
2023/07/09 10:56:44;;;;;;;5.43;3.60;;;35.00;86.40;;;;;;5035902;28;20091;-72
2023/07/09 10:59:31;;;;;;;6.45;3.83;;;35.60;84.00;;;;;;5036183;28;20025;-71
2023/07/09 11:02:08;;;;;;;6.88;3.53;;;36.40;81.10;;;;;;5036956;28;20025;-71
2023/07/09 11:04:46;;;;;;;12.07;3.83;;;37.00;79.60;;;;;;5037187;28;20033;-71
2023/07/09 11:07:15;;;;;;;6.32;3.50;;;36.60;79.50;;;;;;5061569;23;20034;-71
2023/07/09 11:09:45;;;;;;;10.32;3.75;;;36.80;77.40;;;;;;5039069;28;20065;-70
2023/07/09 11:12:13;;;;;;;;;;;37.00;77.00;;;;;;5039698;28;20025;-71
2023/07/09 11:14:43;;;;;;;;;;;37.90;74.40;;;;;;5039441;28;19955;-70
2023/07/09 11:17:14;;;;;;;;;;;37.10;75.00;;;;;;5040497;28;19912;-70
2023/07/09 11:19:44;;;;;;;;;;;36.40;74.60;;;;;;5039564;28;19995;-70
2023/07/09 11:22:13;;;;;;;;;;;36.10;75.00;;;;;;5039848;28;19905;-70
2023/07/09 11:24:52;;;;;;;;;;;36.50;74.80;;;;;;5039389;28;19912;-70
2023/07/09 11:27:27;;;;;;;;;;;37.20;71.50;;;;;;5040010;28;19916;-70
2023/07/09 11:30:00;;;;;;;;;;;36.90;72.60;;;;;;5039503;28;19915;-72
2023/07/09 11:32:27;;;;;;;;;;;36.50;73.00;;;;;;5039813;28;19909;-72
2023/07/09 11:34:52;;;;;;;;;;;36.10;73.60;;;;;;5040296;28;19912;-72
2023/07/09 11:37:18;;;;;;;;;;;36.10;72.70;;;;;;5039950;28;19905;-72
2023/07/09 11:39:45;;;;;;;;;;;36.00;72.20;;;;;;5056812;28;19912;-72
2023/07/09 11:42:23;;;;;;;;;;;36.40;70.80;;;;;;5039306;28;19911;-72
2023/07/09 11:44:49;;;;;;;;;;;36.70;71.20;;;;;;5039584;28;19995;-72
2023/07/09 11:47:15;;;;;;;;;;;36.70;67.00;;;;;;5039477;28;19909;-72
2023/07/09 11:49:46;;;;;;;;;;;37.00;67.70;;;;;;5056658;28;19912;-73
2023/07/09 11:52:12;;;;;;;;;;;37.40;67.30;;;;;;5040180;28;19905;-73
2023/07/09 11:54:38;;;;;;;;;;;37.90;65.00;;;;;;5039526;28;19904;-72
2023/07/09 11:57:10;;;;;;;;;;;39.20;62.30;;;;;;5058543;28;19912;-72
2023/07/09 11:59:39;;;;;;;;;;;38.80;61.30;;;;;;5060350;28;19916;-72
2023/07/09 12:02:05;;;;;;;;;;;38.40;62.10;;;;;;5060552;28;19912;-72
2023/07/09 12:04:33;;;;;;;;;;;38.00;62.80;;;;;;5043129;28;19904;-73
2023/07/09 12:07:00;;;;;;;;;;;38.10;62.50;;;;;;5042375;28;19967;-72
2023/07/09 12:09:31;;;;;;;;;;;38.00;62.00;;;;;;5042664;28;19913;-72
2023/07/09 12:11:56;;;;;;;;;;;39.40;61.20;;;;;;5043349;28;19905;-72
2023/07/09 12:14:22;;;;;;;;;;;39.20;61.10;;;;;;5043251;28;19905;-72
2023/07/09 12:16:50;;;;;;;;;;;39.80;58.30;;;;;;5059949;28;19988;-73
2023/07/09 12:19:20;;;;;;;;;;;40.40;57.90;;;;;;5042660;28;19916;-72
2023/07/09 12:21:47;;;;;;;;;;;40.90;56.60;;;;;;5042424;28;20011;-72
2023/07/09 12:24:21;;;;;;;;;;;41.40;55.30;;;;;;5042223;28;19912;-72
2023/07/09 12:26:58;;;;;;;;;;;40.60;56.20;;;;;;5042215;28;19908;-72
2023/07/09 12:29:25;;;;;;;;;;;40.30;56.30;;;;;;5042283;28;19927;-72
2023/07/09 12:31:51;;;;;;;;;;;39.80;56.80;;;;;;5060060;28;19905;-72
2023/07/09 12:34:17;;;;;;;;;;;38.90;56.90;;;;;;5042218;28;19904;-72
2023/07/09 12:36:45;;;;;;;;;;;38.70;58.40;;;;;;5042075;28;19973;-73
2023/07/09 12:39:12;;;;;;;;;;;38.40;58.80;;;;;;5042337;28;19950;-72
2023/07/09 12:41:39;;;;;;;;;;;38.00;57.70;;;;;;5041908;28;20027;-72
2023/07/09 12:44:05;;;;;;;;;;;37.50;58.60;;;;;;5059417;28;19963;-72
2023/07/09 12:46:31;;;;;;;;;;;37.80;58.10;;;;;;5042768;28;19955;-72
2023/07/09 12:48:56;;;;;;;;;;;38.20;57.60;;;;;;5041786;28;19905;-72
2023/07/09 12:51:24;;;;;;;;;;;37.70;56.10;;;;;;5041836;28;19958;-72
2023/07/09 12:54:08;;;;;;;;;;;37.20;55.80;;;;;;5041805;28;19912;-72
2023/07/09 12:56:34;;;;;;;;;;;36.90;57.60;;;;;;5041573;28;19916;-73
2023/07/09 12:59:01;;;;;;;;;;;37.10;56.90;;;;;;5042536;28;19911;-72
2023/07/09 13:01:27;;;;;;;;;;;37.00;58.60;;;;;;5041716;28;19905;-72